Terminal Aerodrome Forecast
Issued by NWS Tulsa, OK

Home | Current Version | Previous Version | Text Only | Print | Product List | Glossary On
Versions: 1 2 3 4 5 6 7 8 9 10 11 12 13 14 15 16 17 18 19 20 21
000
FTUS44 KTSA 222322
TAFFSM
TAF
KFSM 222322Z 2300/2324 33017G25KT P6SM BKN025 OVC040
     FM230400 31012KT P6SM BKN050
     FM231000 30007KT P6SM SKC
     FM231500 26005KT P6SM SKC=

USA.gov is the U.S. government's official web portal to all federal, state and local government web resources and services.